createdAt,value
2022-07-31T00:00:28.509Z,1.40
2022-07-31T00:02:55.700Z,1.60
2022-07-31T00:05:26.448Z,1.67
2022-07-31T00:07:54.343Z,1.20
2022-07-31T00:10:21.308Z,1.20
2022-07-31T00:12:48.311Z,1.48
2022-07-31T00:15:15.597Z,1.38
2022-07-31T00:17:44.126Z,1.00
2022-07-31T00:20:17.584Z,1.10
2022-07-31T00:22:47.478Z,1.33
2022-07-31T00:25:16.172Z,1.40
2022-07-31T00:27:43.518Z,1.30
2022-07-31T00:30:13.169Z,1.65
2022-07-31T00:32:41.838Z,1.60
2022-07-31T00:35:10.255Z,1.33
2022-07-31T00:37:40.541Z,1.42
2022-07-31T00:40:11.006Z,1.30
2022-07-31T00:42:38.280Z,1.23
2022-07-31T00:45:06.412Z,1.15
2022-07-31T00:47:33.386Z,1.00
2022-07-31T00:50:00.843Z,1.27
2022-07-31T00:52:27.920Z,1.52
2022-07-31T00:54:54.937Z,1.08
2022-07-31T00:57:22.018Z,1.10
2022-07-31T00:59:48.966Z,0.93
2022-07-31T01:02:16.008Z,1.00
2022-07-31T01:04:44.570Z,1.10
2022-07-31T01:07:13.109Z,1.27
2022-07-31T01:09:40.250Z,1.30
2022-07-31T01:12:22.485Z,1.20
2022-07-31T01:14:53.945Z,1.20
2022-07-31T01:17:23.300Z,1.35
2022-07-31T01:19:52.311Z,1.35
2022-07-31T01:22:39.598Z,1.50
2022-07-31T01:25:47.549Z,1.55
2022-07-31T01:28:56.563Z,1.45
2022-07-31T01:31:37.073Z,1.30
2022-07-31T01:34:13.098Z,1.40
2022-07-31T01:36:49.784Z,1.30
2022-07-31T01:39:17.941Z,1.27
2022-07-31T01:41:47.664Z,1.20
2022-07-31T01:44:18.273Z,1.45
2022-07-31T01:46:47.852Z,1.50
2022-07-31T01:49:19.067Z,1.55
2022-07-31T01:51:49.083Z,1.65
2022-07-31T01:54:19.121Z,1.50
2022-07-31T01:56:48.799Z,1.40
2022-07-31T01:59:20.608Z,1.52
2022-07-31T02:02:10.200Z,1.95
2022-07-31T02:04:38.114Z,1.45
2022-07-31T02:07:08.082Z,1.50
2022-07-31T02:09:36.115Z,1.83
2022-07-31T02:12:05.304Z,1.42
2022-07-31T02:14:37.021Z,1.38
2022-07-31T02:17:04.522Z,1.58
2022-07-31T02:19:57.803Z,1.50
2022-07-31T02:22:29.484Z,1.90
2022-07-31T02:24:56.630Z,2.00
2022-07-31T02:27:57.070Z,2.28
2022-07-31T02:30:16.078Z,1.70
2022-07-31T02:32:47.041Z,1.35
2022-07-31T02:35:17.404Z,1.50
2022-07-31T02:37:45.442Z,1.35
2022-07-31T02:40:15.850Z,1.60
2022-07-31T02:42:43.563Z,1.27
2022-07-31T02:45:11.613Z,1.30
2022-07-31T02:47:39.048Z,1.33
2022-07-31T02:50:10.923Z,1.48
2022-07-31T02:52:38.797Z,1.42
2022-07-31T02:55:06.478Z,1.77
2022-07-31T02:57:33.676Z,1.60
2022-07-31T03:00:00.788Z,1.70
2022-07-31T03:02:36.819Z,1.55
2022-07-31T03:05:07.273Z,1.63
2022-07-31T03:07:35.017Z,1.15
2022-07-31T03:10:02.147Z,1.48
2022-07-31T03:12:46.342Z,1.58
2022-07-31T03:15:17.658Z,1.92
2022-07-31T03:17:46.628Z,1.13
2022-07-31T03:20:19.113Z,1.40
2022-07-31T03:22:46.579Z,1.88
2022-07-31T03:25:21.923Z,1.30
2022-07-31T03:27:56.719Z,1.67
2022-07-31T03:30:25.310Z,1.35
2022-07-31T03:32:56.599Z,1.55
2022-07-31T03:35:24.961Z,1.40
2022-07-31T03:37:52.135Z,1.65
2022-07-31T03:40:19.340Z,1.50
2022-07-31T03:42:51.025Z,1.60
2022-07-31T03:45:20.721Z,2.15
2022-07-31T03:47:47.925Z,1.50
2022-07-31T03:50:15.707Z,1.85
2022-07-31T03:52:47.465Z,1.40
2022-07-31T03:57:42.582Z,1.48
2022-07-31T04:00:16.745Z,1.50
2022-07-31T04:02:45.514Z,1.85
2022-07-31T04:05:42.793Z,1.27
2022-07-31T04:08:10.537Z,2.28
2022-07-31T04:10:38.143Z,1.58
2022-07-31T04:13:07.337Z,1.70
2022-07-31T04:15:34.437Z,1.38
2022-07-31T04:18:01.577Z,1.73
2022-07-31T04:20:34.944Z,1.80
2022-07-31T04:23:03.929Z,1.88
2022-07-31T04:25:53.052Z,1.67
2022-07-31T04:28:33.720Z,1.40
2022-07-31T04:31:00.712Z,2.00
2022-07-31T04:33:28.873Z,1.60
2022-07-31T04:35:55.865Z,1.85
2022-07-31T04:38:22.932Z,1.42
2022-07-31T04:40:50.415Z,1.80
2022-07-31T04:43:17.616Z,2.13
2022-07-31T04:45:44.731Z,1.77
2022-07-31T04:48:11.877Z,1.98
2022-07-31T04:50:39.274Z,2.03
2022-07-31T04:53:06.242Z,1.63
2022-07-31T04:55:37.299Z,1.70
2022-07-31T04:58:04.266Z,1.65
2022-07-31T05:00:31.297Z,1.92
2022-07-31T05:02:58.985Z,1.75
2022-07-31T05:05:26.103Z,2.17
2022-07-31T05:07:53.244Z,2.13
2022-07-31T05:10:42.958Z,2.15
2022-07-31T05:13:10.485Z,1.90
2022-07-31T05:15:38.028Z,1.88
2022-07-31T05:18:07.591Z,1.85
2022-07-31T05:20:43.606Z,2.20
2022-07-31T05:23:31.829Z,1.70
2022-07-31T05:26:15.287Z,1.90
2022-07-31T05:28:42.950Z,2.47
2022-07-31T05:31:10.825Z,2.30
2022-07-31T05:33:38.281Z,2.30
2022-07-31T05:36:05.980Z,2.35
2022-07-31T05:38:33.030Z,2.25
2022-07-31T05:41:30.798Z,3.20
2022-07-31T05:44:16.639Z,3.72
2022-07-31T05:46:46.245Z,3.40
2022-07-31T05:49:13.538Z,3.38
2022-07-31T05:51:44.425Z,3.50
2022-07-31T05:54:12.305Z,2.80
2022-07-31T05:56:58.066Z,2.80
2022-07-31T05:59:32.839Z,2.65
2022-07-31T06:01:59.931Z,2.92
2022-07-31T06:04:27.352Z,2.35
2022-07-31T06:06:54.507Z,2.22
2022-07-31T06:09:21.961Z,2.05
2022-07-31T06:11:50.916Z,2.03
2022-07-31T06:14:17.902Z,2.60
2022-07-31T06:17:07.661Z,2.80
2022-07-31T06:19:36.854Z,2.63
2022-07-31T06:22:04.352Z,2.83
2022-07-31T06:24:35.090Z,2.95
2022-07-31T06:27:03.735Z,2.15
2022-07-31T06:29:41.120Z,3.25
2022-07-31T06:32:09.780Z,2.58
2022-07-31T06:34:37.678Z,2.70
2022-07-31T06:37:05.474Z,2.22
2022-07-31T06:39:55.907Z,2.47
2022-07-31T06:42:51.736Z,2.67
2022-07-31T06:45:51.906Z,2.40
2022-07-31T06:48:45.574Z,2.25
2022-07-31T06:51:30.254Z,1.95
2022-07-31T06:53:58.890Z,2.40
2022-07-31T06:56:26.072Z,2.33
2022-07-31T06:58:53.313Z,2.63
2022-07-31T07:01:20.374Z,2.28
2022-07-31T07:03:47.728Z,2.05
2022-07-31T07:06:14.866Z,1.85
2022-07-31T07:08:43.215Z,2.30
2022-07-31T07:11:13.264Z,1.88
2022-07-31T07:13:46.131Z,1.90
2022-07-31T07:16:15.567Z,2.38
2022-07-31T07:18:43.446Z,2.00
2022-07-31T07:21:11.065Z,2.60
2022-07-31T07:23:38.836Z,2.65
2022-07-31T07:26:20.055Z,2.97
2022-07-31T07:28:47.200Z,3.22
2022-07-31T07:31:14.193Z,2.42
2022-07-31T07:33:42.880Z,2.30
2022-07-31T07:36:23.341Z,2.50
2022-07-31T07:38:55.781Z,2.85
2022-07-31T07:41:25.082Z,2.10
2022-07-31T07:43:53.199Z,2.00
2022-07-31T07:46:23.146Z,1.80
2022-07-31T07:48:54.104Z,2.00
2022-07-31T07:51:59.272Z,1.90
2022-07-31T07:54:53.065Z,1.83
2022-07-31T07:57:23.132Z,1.88
2022-07-31T08:00:12.431Z,1.63
2022-07-31T08:03:46.823Z,2.00
2022-07-31T08:05:43.700Z,1.60
2022-07-31T08:08:10.873Z,2.03
2022-07-31T08:10:41.158Z,2.13
2022-07-31T08:13:15.116Z,1.70
2022-07-31T08:16:05.602Z,1.63
2022-07-31T08:18:36.043Z,2.30
2022-07-31T08:21:03.079Z,2.00
2022-07-31T08:23:30.334Z,1.85
2022-07-31T08:25:57.531Z,2.03
2022-07-31T08:28:26.655Z,2.20
2022-07-31T08:30:54.123Z,1.83
2022-07-31T08:33:22.806Z,1.80
2022-07-31T08:35:54.874Z,2.35
2022-07-31T08:38:22.088Z,1.83
2022-07-31T08:41:21.450Z,1.83
2022-07-31T08:43:59.932Z,2.33
2022-07-31T08:46:37.555Z,1.85
2022-07-31T08:49:06.465Z,1.50
2022-07-31T08:51:51.143Z,2.22
2022-07-31T08:54:54.754Z,2.20
2022-07-31T08:57:24.287Z,2.60
2022-07-31T08:59:52.641Z,1.58
2022-07-31T09:02:20.063Z,1.60
2022-07-31T09:05:10.325Z,1.50
2022-07-31T09:07:39.854Z,1.75
2022-07-31T09:10:28.449Z,1.48
2022-07-31T09:12:57.232Z,1.58
2022-07-31T09:15:30.753Z,1.42
2022-07-31T09:18:00.962Z,1.30
2022-07-31T09:20:29.464Z,1.50
2022-07-31T09:23:09.052Z,1.60
2022-07-31T09:25:39.999Z,2.00
2022-07-31T09:28:08.022Z,1.27
2022-07-31T09:30:35.667Z,1.30
2022-07-31T09:33:54.629Z,1.10
2022-07-31T09:36:36.146Z,1.20
2022-07-31T09:39:29.492Z,1.45
2022-07-31T09:42:16.914Z,0.95
2022-07-31T09:44:59.590Z,1.25
2022-07-31T09:47:30.529Z,1.05
2022-07-31T09:50:04.427Z,0.93
2022-07-31T09:55:15.033Z,0.93
2022-07-31T09:57:56.645Z,0.82
2022-07-31T10:00:27.468Z,0.98
2022-07-31T10:02:56.829Z,1.23
2022-07-31T10:05:27.631Z,0.40
2022-07-31T10:08:00.754Z,0.77
2022-07-31T10:10:49.110Z,1.10
2022-07-31T10:13:45.932Z,0.88
2022-07-31T10:16:14.103Z,0.70
2022-07-31T10:19:11.905Z,1.10
2022-07-31T10:21:56.489Z,0.93
2022-07-31T10:24:32.011Z,0.90
2022-07-31T10:27:10.842Z,0.95
2022-07-31T10:29:40.586Z,0.98
2022-07-31T10:32:08.659Z,1.27
2022-07-31T10:34:41.043Z,1.08
2022-07-31T10:37:43.251Z,0.90
2022-07-31T10:40:49.965Z,0.80
2022-07-31T10:43:29.875Z,1.38
2022-07-31T10:46:14.966Z,1.02
2022-07-31T10:48:53.782Z,0.75
2022-07-31T10:51:53.513Z,0.90
2022-07-31T10:54:44.171Z,1.00
2022-07-31T10:57:55.971Z,0.80
2022-07-31T11:00:42.290Z,1.05
2022-07-31T11:03:23.317Z,1.20
2022-07-31T11:06:08.789Z,1.23
2022-07-31T11:08:55.729Z,0.85
2022-07-31T11:11:41.526Z,0.98
2022-07-31T11:14:40.402Z,0.88
2022-07-31T11:18:23.477Z,0.70
2022-07-31T11:20:32.689Z,0.90
2022-07-31T11:23:08.481Z,0.90
2022-07-31T11:25:37.672Z,1.30
2022-07-31T11:28:23.599Z,1.00
2022-07-31T11:30:59.181Z,1.23
2022-07-31T11:33:42.144Z,2.55
2022-07-31T11:36:17.907Z,1.10
2022-07-31T11:38:50.451Z,1.15
2022-07-31T11:41:22.233Z,1.08
2022-07-31T11:43:52.178Z,1.10
2022-07-31T11:46:31.951Z,0.75
2022-07-31T11:49:00.231Z,1.15
2022-07-31T11:51:30.929Z,0.80
2022-07-31T11:53:58.036Z,1.75
2022-07-31T11:56:27.849Z,1.10
2022-07-31T11:58:57.743Z,1.00
2022-07-31T12:01:29.529Z,0.95
2022-07-31T12:04:06.255Z,1.45
2022-07-31T12:06:36.870Z,1.15
2022-07-31T12:09:04.679Z,0.95
2022-07-31T12:11:32.053Z,1.00
2022-07-31T12:13:59.494Z,1.00
2022-07-31T12:16:26.735Z,0.80
2022-07-31T12:18:58.589Z,0.75
2022-07-31T12:21:38.361Z,0.82
2022-07-31T12:24:15.390Z,1.10
2022-07-31T12:26:55.561Z,1.42
2022-07-31T12:29:37.633Z,1.10
2022-07-31T12:32:08.497Z,1.40
2022-07-31T12:34:41.728Z,1.35
2022-07-31T12:37:15.225Z,1.02
2022-07-31T12:40:00.822Z,1.08
2022-07-31T12:42:40.770Z,1.23
2022-07-31T12:45:19.931Z,1.10
2022-07-31T12:47:51.844Z,0.95
2022-07-31T12:50:24.747Z,1.45
2022-07-31T12:52:52.124Z,1.13
2022-07-31T12:55:19.641Z,0.88
2022-07-31T12:57:51.535Z,1.13
2022-07-31T13:00:23.094Z,0.95
2022-07-31T13:02:52.464Z,1.02
2022-07-31T13:05:20.116Z,1.55
2022-07-31T13:07:47.696Z,0.50
2022-07-31T13:10:21.654Z,0.93
2022-07-31T13:12:51.884Z,0.75
2022-07-31T13:15:23.207Z,0.85
2022-07-31T13:17:51.078Z,0.98
2022-07-31T13:20:18.999Z,1.10
2022-07-31T13:22:45.986Z,0.80
2022-07-31T13:25:13.676Z,0.90
2022-07-31T13:27:41.827Z,0.70
2022-07-31T13:30:34.768Z,1.00
2022-07-31T13:33:01.718Z,1.00
2022-07-31T13:35:29.506Z,0.70
2022-07-31T13:37:57.162Z,0.82
2022-07-31T13:40:43.685Z,1.52
2022-07-31T13:43:11.119Z,1.15
2022-07-31T13:45:38.335Z,1.25
2022-07-31T13:48:09.204Z,1.52
2022-07-31T13:50:39.483Z,1.23
2022-07-31T13:53:07.100Z,1.02
2022-07-31T13:55:34.284Z,0.90
2022-07-31T13:58:01.768Z,0.75
2022-07-31T14:00:30.216Z,0.88
2022-07-31T14:02:57.993Z,0.80
2022-07-31T14:05:26.690Z,0.90
2022-07-31T14:07:55.900Z,0.90
2022-07-31T14:10:23.541Z,0.98
2022-07-31T14:12:50.903Z,0.77
2022-07-31T14:15:18.300Z,1.17
2022-07-31T14:17:45.985Z,1.17
2022-07-31T14:20:13.650Z,0.70
2022-07-31T14:22:42.351Z,0.75
2022-07-31T14:25:13.240Z,0.90
2022-07-31T14:27:40.527Z,0.82
2022-07-31T14:30:09.632Z,0.95
2022-07-31T14:32:37.306Z,0.60
2022-07-31T14:35:08.369Z,1.05
2022-07-31T14:37:36.862Z,0.90
2022-07-31T14:40:07.331Z,0.80
2022-07-31T14:42:35.324Z,1.13
2022-07-31T14:45:06.685Z,1.00
2022-07-31T14:47:34.707Z,1.05
2022-07-31T14:50:08.882Z,0.70
2022-07-31T14:52:37.991Z,0.98
2022-07-31T14:55:05.755Z,0.90
2022-07-31T14:57:32.884Z,1.00
2022-07-31T15:00:00.022Z,1.20
2022-07-31T15:02:27.442Z,1.30
2022-07-31T15:04:55.370Z,1.80
2022-07-31T15:07:43.874Z,1.17
2022-07-31T15:10:11.739Z,1.23
2022-07-31T15:12:38.836Z,1.88
2022-07-31T15:15:07.756Z,1.20
2022-07-31T15:17:34.714Z,1.00
2022-07-31T15:20:01.771Z,1.45
2022-07-31T15:22:29.852Z,1.30
2022-07-31T15:24:57.136Z,0.82
2022-07-31T15:27:24.867Z,0.80
2022-07-31T15:30:04.146Z,1.33
2022-07-31T15:35:01.163Z,0.80
2022-07-31T15:37:28.397Z,0.70
2022-07-31T15:40:01.647Z,1.13
2022-07-31T15:42:37.665Z,0.82
2022-07-31T15:45:06.312Z,0.60
2022-07-31T15:47:33.519Z,0.82
2022-07-31T15:50:00.945Z,0.63
2022-07-31T15:52:27.881Z,1.10
2022-07-31T15:54:55.042Z,0.73
2022-07-31T15:57:23.019Z,0.70
2022-07-31T15:59:52.239Z,0.70
2022-07-31T16:02:19.475Z,0.85
2022-07-31T16:04:52.821Z,1.05
2022-07-31T16:08:30.039Z,0.98
2022-07-31T16:10:16.639Z,0.90
2022-07-31T16:12:51.658Z,0.95
2022-07-31T16:15:18.638Z,0.88
2022-07-31T16:17:47.869Z,0.88
2022-07-31T16:20:25.327Z,1.10
2022-07-31T16:23:01.149Z,0.70
2022-07-31T16:25:31.785Z,1.30
2022-07-31T16:28:02.537Z,0.77
2022-07-31T16:30:29.527Z,0.95
2022-07-31T16:32:56.573Z,0.70
2022-07-31T16:35:26.166Z,1.10
2022-07-31T16:37:54.295Z,1.10
2022-07-31T16:40:29.831Z,0.90
2022-07-31T16:43:50.541Z,0.70
2022-07-31T16:45:52.350Z,0.40
2022-07-31T16:48:19.542Z,0.88
2022-07-31T16:50:52.912Z,0.82
2022-07-31T16:54:11.168Z,1.35
2022-07-31T16:56:16.371Z,0.95
2022-07-31T16:58:44.145Z,0.80
2022-07-31T17:01:58.065Z,0.80
2022-07-31T17:04:03.460Z,0.77
2022-07-31T17:06:36.941Z,0.63
2022-07-31T17:09:16.713Z,0.70
2022-07-31T17:11:47.367Z,0.75
2022-07-31T17:14:15.750Z,1.10
2022-07-31T17:16:47.048Z,0.90
2022-07-31T17:19:14.668Z,0.60
2022-07-31T17:21:43.819Z,1.23
2022-07-31T17:24:15.815Z,1.15
2022-07-31T17:26:44.127Z,0.73
2022-07-31T17:29:12.405Z,0.82
2022-07-31T17:31:39.586Z,0.80
2022-07-31T17:34:09.260Z,0.70
2022-07-31T17:36:36.641Z,0.90
2022-07-31T17:39:04.787Z,0.85
2022-07-31T17:41:32.107Z,0.60
2022-07-31T17:43:59.143Z,1.00
2022-07-31T17:46:34.444Z,0.70
2022-07-31T17:49:05.953Z,0.82
2022-07-31T17:51:33.371Z,1.00
2022-07-31T17:54:00.687Z,0.77
2022-07-31T17:56:28.024Z,0.75
2022-07-31T17:59:04.436Z,0.70
2022-07-31T18:01:35.322Z,0.90
2022-07-31T18:04:03.345Z,1.05
2022-07-31T18:06:30.989Z,0.80
2022-07-31T18:08:58.904Z,0.90
2022-07-31T18:11:26.255Z,1.10
2022-07-31T18:13:55.334Z,0.85
2022-07-31T18:16:23.793Z,1.20
2022-07-31T18:18:54.346Z,1.70
2022-07-31T18:21:21.663Z,1.08
2022-07-31T18:23:48.720Z,0.98
2022-07-31T18:26:16.129Z,0.85
2022-07-31T18:28:46.215Z,0.65
2022-07-31T18:31:32.386Z,0.93
2022-07-31T18:34:00.140Z,1.63
2022-07-31T18:36:27.458Z,2.30
2022-07-31T18:38:54.441Z,1.13
2022-07-31T18:41:21.617Z,0.88
2022-07-31T18:43:48.778Z,0.70
2022-07-31T18:46:16.115Z,0.80
2022-07-31T18:48:43.167Z,1.00
2022-07-31T18:51:10.263Z,1.38
2022-07-31T18:53:37.597Z,1.02
2022-07-31T18:56:05.173Z,0.90
2022-07-31T18:58:32.392Z,1.42
2022-07-31T19:00:59.855Z,1.10
2022-07-31T19:03:27.077Z,1.60
2022-07-31T19:05:54.475Z,1.10
2022-07-31T19:08:21.642Z,0.98
2022-07-31T19:10:49.590Z,1.00
2022-07-31T19:13:18.661Z,1.00
2022-07-31T19:15:52.877Z,1.00
2022-07-31T19:18:28.086Z,0.70
2022-07-31T19:21:23.579Z,0.77
2022-07-31T19:23:47.184Z,0.50
2022-07-31T19:26:14.278Z,0.52
2022-07-31T19:28:43.201Z,0.47
2022-07-31T19:31:13.102Z,0.75
2022-07-31T19:33:40.682Z,0.55
2022-07-31T19:36:08.130Z,0.68
2022-07-31T19:38:38.189Z,0.50
2022-07-31T19:41:05.337Z,0.75
2022-07-31T19:43:33.410Z,0.52
2022-07-31T19:46:11.518Z,1.08
2022-07-31T19:48:45.576Z,0.68
2022-07-31T19:51:15.502Z,0.55
2022-07-31T19:53:44.447Z,0.50
2022-07-31T19:56:18.095Z,0.80
2022-07-31T19:58:47.898Z,0.63
2022-07-31T20:01:21.005Z,0.50
2022-07-31T20:03:56.080Z,0.60
2022-07-31T20:06:24.166Z,0.77
2022-07-31T20:08:55.104Z,0.60
2022-07-31T20:11:25.866Z,0.65
2022-07-31T20:13:52.927Z,0.52
2022-07-31T20:16:20.102Z,0.50
2022-07-31T20:18:48.428Z,0.52
2022-07-31T20:21:15.820Z,0.50
2022-07-31T20:23:44.371Z,0.47
2022-07-31T20:26:17.653Z,0.50
2022-07-31T20:28:45.192Z,0.40
2022-07-31T20:31:15.860Z,0.55
2022-07-31T20:33:56.878Z,0.60
2022-07-31T20:36:24.347Z,0.65
2022-07-31T20:38:51.377Z,0.47
2022-07-31T20:41:18.548Z,0.75
2022-07-31T20:43:45.884Z,0.98
2022-07-31T20:46:13.006Z,0.60
2022-07-31T20:48:40.028Z,0.60
2022-07-31T20:51:09.100Z,0.40
2022-07-31T20:53:36.742Z,0.30
2022-07-31T20:56:03.737Z,0.50
2022-07-31T20:58:30.651Z,0.43
2022-07-31T21:00:57.770Z,0.60
2022-07-31T21:03:25.031Z,0.70
2022-07-31T21:05:52.070Z,0.40
2022-07-31T21:08:19.070Z,0.35
2022-07-31T21:10:46.200Z,0.47
2022-07-31T21:13:13.471Z,0.50
2022-07-31T21:15:44.587Z,0.50
2022-07-31T21:18:17.184Z,0.70
2022-07-31T21:20:52.375Z,0.57
2022-07-31T21:23:25.643Z,0.63
2022-07-31T21:25:55.479Z,0.30
2022-07-31T21:28:23.979Z,0.50
2022-07-31T21:30:53.663Z,0.50
2022-07-31T21:33:21.220Z,0.55
2022-07-31T21:35:48.550Z,0.95
2022-07-31T21:38:16.458Z,0.93
2022-07-31T21:40:45.183Z,0.50
2022-07-31T21:43:15.438Z,0.63
2022-07-31T21:45:54.911Z,0.63
2022-07-31T21:48:25.567Z,0.57
2022-07-31T21:50:54.147Z,0.60
2022-07-31T21:53:21.876Z,0.50
2022-07-31T21:55:51.656Z,0.63
2022-07-31T21:58:18.821Z,0.43
2022-07-31T22:00:45.969Z,0.55
2022-07-31T22:03:13.281Z,0.70
2022-07-31T22:05:59.005Z,0.65
2022-07-31T22:08:26.320Z,0.50
2022-07-31T22:10:53.394Z,0.68
2022-07-31T22:13:20.863Z,0.68
2022-07-31T22:15:59.090Z,0.50
2022-07-31T22:18:32.878Z,0.63
2022-07-31T22:21:02.040Z,0.80
2022-07-31T22:23:29.543Z,0.60
2022-07-31T22:25:57.272Z,0.50
2022-07-31T22:28:25.524Z,0.75
2022-07-31T22:30:54.141Z,0.60
2022-07-31T22:33:21.996Z,0.40
2022-07-31T22:36:00.252Z,0.65
2022-07-31T22:38:30.112Z,0.50
2022-07-31T22:41:01.397Z,0.77
2022-07-31T22:44:10.794Z,0.63
2022-07-31T22:46:16.391Z,0.70
2022-07-31T22:48:45.887Z,0.73
2022-07-31T22:51:14.846Z,0.60
2022-07-31T22:53:48.656Z,1.38
2022-07-31T22:56:17.441Z,0.52
2022-07-31T22:58:44.380Z,0.75
2022-07-31T23:01:11.417Z,0.47
2022-07-31T23:03:38.427Z,0.90
2022-07-31T23:06:30.843Z,0.68
2022-07-31T23:08:54.982Z,0.70
2022-07-31T23:11:23.412Z,0.70
2022-07-31T23:13:51.535Z,0.65
2022-07-31T23:16:18.610Z,0.93
2022-07-31T23:18:45.636Z,1.00
2022-07-31T23:21:12.666Z,0.50
2022-07-31T23:23:39.646Z,0.70
2022-07-31T23:26:06.735Z,0.90
2022-07-31T23:28:34.232Z,0.65
2022-07-31T23:31:01.189Z,1.02
2022-07-31T23:33:28.179Z,0.77
2022-07-31T23:35:55.386Z,0.88
2022-07-31T23:38:22.713Z,0.60
2022-07-31T23:40:49.771Z,0.85
2022-07-31T23:43:20.887Z,0.73
2022-07-31T23:48:15.396Z,0.70
2022-07-31T23:50:44.283Z,0.80
2022-07-31T23:53:11.401Z,0.82
2022-07-31T23:55:42.942Z,0.75
2022-07-31T23:58:10.503Z,0.60
